createdAt,value
2023-01-04T00:01:52.451Z,60.16
2023-01-04T00:04:23.088Z,58.45
2023-01-04T00:06:54.017Z,59.36
2023-01-04T00:09:24.554Z,61.82
2023-01-04T00:11:55.335Z,67.13
2023-01-04T00:14:25.909Z,66.26
2023-01-04T00:16:56.653Z,62.80
2023-01-04T00:19:27.179Z,61.53
2023-01-04T00:21:58.224Z,60.79
2023-01-04T00:24:28.736Z,60.34
2023-01-04T00:26:59.569Z,60.07
2023-01-04T00:29:30.109Z,58.39
2023-01-04T00:32:01.281Z,59.63
2023-01-04T00:34:31.876Z,64.43
2023-01-04T00:37:02.918Z,63.95
2023-01-04T00:39:33.441Z,62.55
2023-01-04T00:42:06.676Z,60.36
2023-01-04T00:44:37.284Z,58.82
2023-01-04T00:47:08.205Z,60.10
2023-01-04T00:49:38.870Z,63.24
2023-01-04T00:52:10.710Z,67.84
2023-01-04T00:54:41.206Z,65.84
2023-01-04T00:57:12.018Z,63.28
2023-01-04T00:59:42.487Z,61.17
2023-01-04T01:02:13.762Z,59.21
2023-01-04T01:04:44.500Z,58.74
2023-01-04T01:07:15.544Z,61.02
2023-01-04T01:09:46.048Z,63.77
2023-01-04T01:12:16.976Z,66.41
2023-01-04T01:14:47.644Z,64.06
2023-01-04T01:17:18.624Z,61.72
2023-01-04T01:19:49.274Z,60.27
2023-01-04T01:22:20.131Z,60.06
2023-01-04T01:24:50.635Z,58.55
2023-01-04T01:27:21.574Z,60.20
2023-01-04T01:29:52.108Z,64.82
2023-01-04T01:32:23.327Z,65.46
2023-01-04T01:34:53.842Z,63.69
2023-01-04T01:37:25.117Z,60.93
2023-01-04T01:39:55.648Z,60.36
2023-01-04T01:42:26.791Z,59.89
2023-01-04T01:45:01.763Z,58.31
2023-01-04T01:47:38.950Z,60.29
2023-01-04T01:50:18.110Z,65.07
2023-01-04T01:52:49.426Z,65.16
2023-01-04T01:55:20.007Z,62.42
2023-01-04T01:57:51.936Z,61.22
2023-01-04T02:00:22.855Z,60.60
2023-01-04T02:02:58.862Z,59.75
2023-01-04T02:05:29.810Z,57.51
2023-01-04T02:08:01.784Z,58.90
2023-01-04T02:10:32.597Z,64.05
2023-01-04T02:13:05.502Z,66.18
2023-01-04T02:15:41.393Z,63.75
2023-01-04T02:18:14.533Z,61.74
2023-01-04T02:20:48.702Z,60.78
2023-01-04T02:23:30.170Z,59.20
2023-01-04T02:26:29.324Z,59.11
2023-01-04T02:29:20.649Z,64.03
2023-01-04T02:31:52.900Z,64.96
2023-01-04T02:34:29.581Z,61.33
2023-01-04T02:37:02.117Z,59.86
2023-01-04T02:39:36.762Z,58.54
2023-01-04T02:42:14.310Z,61.74
2023-01-04T02:44:56.386Z,66.49
2023-01-04T02:47:46.424Z,64.77
2023-01-04T02:50:34.219Z,63.26
2023-01-04T02:53:06.822Z,61.20
2023-01-04T02:55:43.834Z,58.28
2023-01-04T02:58:20.711Z,59.85
2023-01-04T03:01:12.924Z,64.28
2023-01-04T03:04:06.950Z,64.17
2023-01-04T03:06:35.970Z,61.75
2023-01-04T03:09:08.439Z,58.94
2023-01-04T03:11:59.691Z,60.64
2023-01-04T03:14:33.674Z,66.46
2023-01-04T03:17:06.116Z,65.47
2023-01-04T03:19:55.233Z,62.43
2023-01-04T03:22:48.638Z,61.94
2023-01-04T03:25:38.237Z,60.25
2023-01-04T03:28:27.268Z,60.38
2023-01-04T03:31:14.007Z,59.08
2023-01-04T03:34:02.389Z,59.08
2023-01-04T03:36:45.173Z,64.67
2023-01-04T03:39:35.650Z,63.78
2023-01-04T03:42:27.265Z,61.49
2023-01-04T03:45:19.495Z,58.93
2023-01-04T03:48:10.116Z,61.45
2023-01-04T03:50:43.389Z,65.26
2023-01-04T03:53:15.351Z,64.82
2023-01-04T03:55:46.859Z,62.12
2023-01-04T03:58:17.723Z,58.84
2023-01-04T04:00:48.774Z,60.07
2023-01-04T04:03:19.768Z,65.00
2023-01-04T04:06:08.474Z,65.65
2023-01-04T04:08:39.277Z,61.92
2023-01-04T04:11:23.795Z,60.20
2023-01-04T04:13:54.598Z,61.14
2023-01-04T04:16:25.768Z,60.63
2023-01-04T04:18:57.100Z,60.63
2023-01-04T04:21:27.816Z,60.81
2023-01-04T04:23:59.593Z,59.76
2023-01-04T04:26:30.214Z,59.04
2023-01-04T04:29:01.160Z,62.20
2023-01-04T04:31:31.937Z,67.01
2023-01-04T04:34:02.844Z,66.16
2023-01-04T04:36:33.446Z,63.96
2023-01-04T04:39:04.797Z,60.13
2023-01-04T04:41:41.988Z,59.82
2023-01-04T04:44:13.840Z,65.16
2023-01-04T04:46:44.901Z,66.89
2023-01-04T04:49:16.161Z,64.43
2023-01-04T04:51:47.606Z,63.33
2023-01-04T04:54:20.048Z,63.48
2023-01-04T04:56:51.200Z,63.01
2023-01-04T04:59:22.140Z,62.45
2023-01-04T05:01:53.024Z,61.60
2023-01-04T05:04:23.839Z,60.36
2023-01-04T05:06:54.477Z,58.05
2023-01-04T05:09:26.614Z,58.87
2023-01-04T05:12:15.349Z,64.20
2023-01-04T05:14:45.863Z,64.75
2023-01-04T05:17:16.819Z,63.95
2023-01-04T05:19:47.599Z,62.94
2023-01-04T05:22:18.129Z,62.62
2023-01-04T05:24:48.859Z,61.27
2023-01-04T05:27:19.551Z,60.70
2023-01-04T05:30:07.992Z,59.98
2023-01-04T05:32:38.735Z,57.90
2023-01-04T05:35:10.089Z,59.05
2023-01-04T05:37:41.244Z,63.61
2023-01-04T05:40:12.572Z,65.72
2023-01-04T05:42:44.018Z,63.49
2023-01-04T05:45:15.143Z,61.20
2023-01-04T05:47:45.683Z,59.76
2023-01-04T05:50:16.231Z,59.36
2023-01-04T05:52:47.159Z,60.31
2023-01-04T05:55:18.376Z,64.95
2023-01-04T05:57:49.648Z,64.26
2023-01-04T06:00:20.699Z,60.62
2023-01-04T06:02:52.924Z,59.87
2023-01-04T06:05:25.140Z,59.07
2023-01-04T06:07:56.059Z,62.79
2023-01-04T06:10:26.895Z,66.71
2023-01-04T06:12:57.519Z,64.90
2023-01-04T06:15:28.457Z,62.85
2023-01-04T06:17:59.041Z,61.75
2023-01-04T06:20:29.825Z,61.51
2023-01-04T06:23:00.445Z,60.27
2023-01-04T06:25:31.189Z,59.08
2023-01-04T06:28:01.920Z,62.08
2023-01-04T06:30:32.794Z,66.48
2023-01-04T06:33:03.595Z,64.18
2023-01-04T06:35:36.278Z,62.12
2023-01-04T06:38:06.736Z,61.50
2023-01-04T06:40:37.639Z,60.49
2023-01-04T06:43:08.171Z,58.90
2023-01-04T06:45:38.946Z,62.98
2023-01-04T06:48:09.569Z,64.47
2023-01-04T06:50:40.767Z,61.80
2023-01-04T06:53:11.815Z,59.14
2023-01-04T06:55:42.541Z,60.29
2023-01-04T06:58:13.453Z,65.96
2023-01-04T07:00:44.430Z,65.58
2023-01-04T07:03:16.124Z,63.18
2023-01-04T07:05:50.200Z,61.98
2023-01-04T07:08:21.046Z,61.03
2023-01-04T07:10:51.955Z,60.36
2023-01-04T07:13:22.588Z,60.20
2023-01-04T07:15:53.560Z,60.42
2023-01-04T07:18:24.863Z,59.66
2023-01-04T07:20:55.861Z,58.58
2023-01-04T07:23:26.456Z,60.97
2023-01-04T07:25:57.170Z,66.03
2023-01-04T07:28:45.531Z,66.19
2023-01-04T07:31:16.432Z,62.33
2023-01-04T07:33:50.064Z,59.79
2023-01-04T07:36:20.723Z,60.01
2023-01-04T07:38:51.427Z,64.17
2023-01-04T07:41:22.088Z,65.38
2023-01-04T07:43:52.899Z,62.73
2023-01-04T07:46:23.740Z,61.87
2023-01-04T07:48:54.314Z,61.80
2023-01-04T07:51:25.001Z,59.73
2023-01-04T07:53:55.931Z,59.14
2023-01-04T07:56:26.536Z,60.97
2023-01-04T07:58:59.646Z,66.11
2023-01-04T08:01:30.806Z,67.25
2023-01-04T08:04:01.558Z,63.60
2023-01-04T08:06:32.375Z,61.57
2023-01-04T08:09:03.493Z,60.74
2023-01-04T08:11:34.759Z,60.09
2023-01-04T08:14:05.478Z,58.67
2023-01-04T08:16:37.086Z,58.89
2023-01-04T08:19:09.297Z,62.65
2023-01-04T08:21:40.478Z,66.70
2023-01-04T08:24:12.159Z,65.59
2023-01-04T08:26:42.834Z,64.02
2023-01-04T08:29:13.919Z,60.11
2023-01-04T08:31:44.868Z,58.56
2023-01-04T08:34:15.944Z,61.09
2023-01-04T08:36:48.587Z,65.76
2023-01-04T08:39:19.251Z,64.43
2023-01-04T08:42:00.521Z,62.62
2023-01-04T08:44:35.404Z,61.09
2023-01-04T08:47:06.243Z,59.30
2023-01-04T08:49:37.086Z,58.49
2023-01-04T08:52:09.422Z,61.07
2023-01-04T08:54:40.599Z,65.68
2023-01-04T08:57:11.999Z,66.33
2023-01-04T08:59:42.785Z,64.36
2023-01-04T09:02:20.389Z,63.32
2023-01-04T09:04:51.457Z,62.97
2023-01-04T09:07:22.221Z,62.51
2023-01-04T09:09:53.043Z,61.91
2023-01-04T09:12:24.080Z,61.65
2023-01-04T09:14:54.651Z,61.40
2023-01-04T09:17:25.955Z,60.31
2023-01-04T09:19:56.701Z,59.97
2023-01-04T09:22:27.595Z,60.18
2023-01-04T09:24:58.155Z,59.02
2023-01-04T09:27:28.869Z,58.26
2023-01-04T09:29:59.654Z,60.08
2023-01-04T09:32:30.952Z,64.37
2023-01-04T09:35:01.513Z,65.55
2023-01-04T09:37:32.327Z,61.71
2023-01-04T09:40:03.111Z,58.92
2023-01-04T09:42:37.720Z,61.68
2023-01-04T09:45:25.290Z,64.73
2023-01-04T09:47:58.263Z,61.23
2023-01-04T09:50:30.705Z,61.04
2023-01-04T09:53:05.835Z,60.23
2023-01-04T09:55:41.379Z,59.86
2023-01-04T09:58:19.371Z,56.78
2023-01-04T10:00:52.668Z,59.14
2023-01-04T10:03:25.191Z,62.71
2023-01-04T10:05:58.147Z,64.50
2023-01-04T10:08:31.437Z,62.48
2023-01-04T10:11:10.627Z,60.22
2023-01-04T10:13:50.390Z,57.64
2023-01-04T10:16:52.669Z,59.67
2023-01-04T10:21:08.485Z,62.54
2023-01-04T10:22:15.642Z,64.16
2023-01-04T10:24:52.341Z,62.09
2023-01-04T10:27:35.374Z,57.83
2023-01-04T10:30:17.011Z,58.52
2023-01-04T10:32:50.915Z,59.62
2023-01-04T10:35:22.811Z,61.04
2023-01-04T10:37:54.272Z,66.89
2023-01-04T10:40:25.484Z,65.11
2023-01-04T10:42:59.834Z,63.06
2023-01-04T10:45:34.104Z,58.17
2023-01-04T10:48:09.166Z,58.41
2023-01-04T10:50:40.861Z,59.04
2023-01-04T10:53:14.354Z,60.12
2023-01-04T10:56:24.442Z,63.84
2023-01-04T10:58:41.154Z,64.76
2023-01-04T11:01:15.230Z,60.65
2023-01-04T11:03:48.502Z,56.06
2023-01-04T11:06:22.125Z,56.99
2023-01-04T11:08:51.374Z,59.30
2023-01-04T11:11:24.547Z,62.02
2023-01-04T11:13:55.480Z,62.91
2023-01-04T11:16:26.374Z,56.40
2023-01-04T11:18:57.157Z,57.76
2023-01-04T11:21:30.140Z,59.54
2023-01-04T11:24:22.026Z,60.19
2023-01-04T11:26:53.514Z,62.31
2023-01-04T11:29:31.563Z,60.28
2023-01-04T11:32:04.235Z,54.60
2023-01-04T11:34:48.636Z,54.70
2023-01-04T11:37:33.625Z,56.79
2023-01-04T11:40:28.519Z,58.24
2023-01-04T11:43:12.771Z,58.91
2023-01-04T11:45:53.807Z,60.16
2023-01-04T11:48:35.639Z,59.62
2023-01-04T11:51:07.686Z,59.95
2023-01-04T11:53:41.112Z,59.29
2023-01-04T11:56:16.750Z,59.26
2023-01-04T11:59:04.282Z,59.17
2023-01-04T12:01:37.955Z,59.93
2023-01-04T12:04:12.979Z,59.22
2023-01-04T12:06:46.920Z,58.29
2023-01-04T12:09:18.278Z,58.31
2023-01-04T12:11:51.196Z,58.16
2023-01-04T12:14:23.535Z,58.07
2023-01-04T12:16:56.943Z,58.31
2023-01-04T12:19:25.801Z,58.36
2023-01-04T12:21:57.889Z,58.04
2023-01-04T12:24:30.352Z,57.97
2023-01-04T12:27:02.311Z,58.20
2023-01-04T12:29:54.782Z,57.86
2023-01-04T12:32:45.098Z,57.88
2023-01-04T12:35:32.880Z,57.00
2023-01-04T12:38:04.017Z,56.70
2023-01-04T12:40:51.751Z,57.08
2023-01-04T12:43:26.592Z,56.24
2023-01-04T12:46:30.620Z,55.61
2023-01-04T12:49:12.687Z,55.89
2023-01-04T12:51:58.242Z,55.29
2023-01-04T12:54:46.141Z,54.64
2023-01-04T12:57:30.650Z,55.13
2023-01-04T13:00:04.362Z,54.39
2023-01-04T13:02:36.167Z,54.51
2023-01-04T13:05:55.579Z,54.24
2023-01-04T13:08:23.615Z,54.54
2023-01-04T13:10:57.327Z,54.33
2023-01-04T13:13:26.262Z,54.60
2023-01-04T13:16:02.528Z,54.67
2023-01-04T13:18:37.352Z,55.02
2023-01-04T13:21:12.701Z,54.79
2023-01-04T13:23:48.031Z,55.11
2023-01-04T13:26:38.723Z,55.32
2023-01-04T13:29:17.001Z,55.33
2023-01-04T13:31:55.302Z,55.26
2023-01-04T13:34:27.563Z,55.60
2023-01-04T13:37:01.125Z,55.96
2023-01-04T13:39:31.860Z,55.71
2023-01-04T13:42:03.003Z,55.64
2023-01-04T13:45:18.049Z,55.86
2023-01-04T13:47:37.863Z,55.98
2023-01-04T13:50:28.924Z,55.96
2023-01-04T13:53:07.579Z,55.70
2023-01-04T13:55:39.972Z,55.75
2023-01-04T13:58:18.454Z,56.04
2023-01-04T14:00:51.348Z,55.96
2023-01-04T14:03:30.153Z,55.98
2023-01-04T14:06:12.514Z,55.93
2023-01-04T14:08:46.125Z,56.10
2023-01-04T14:11:40.259Z,56.29
2023-01-04T14:14:25.656Z,56.42
2023-01-04T14:17:06.350Z,56.46
2023-01-04T14:19:45.457Z,56.50
2023-01-04T14:22:35.716Z,56.44
2023-01-04T14:25:19.964Z,56.42
2023-01-04T14:27:52.339Z,56.64
2023-01-04T14:30:26.696Z,56.75
2023-01-04T14:32:58.712Z,56.91
2023-01-04T14:35:30.790Z,57.29
2023-01-04T14:38:05.044Z,57.32
2023-01-04T14:40:36.857Z,57.54
2023-01-04T14:43:20.905Z,57.60
2023-01-04T14:45:51.747Z,57.75
2023-01-04T14:48:24.220Z,57.98
2023-01-04T14:50:55.165Z,58.03
2023-01-04T14:53:25.701Z,58.20
2023-01-04T14:55:57.047Z,58.25
2023-01-04T14:58:27.875Z,58.49
2023-01-04T15:00:58.682Z,58.59
2023-01-04T15:03:29.665Z,58.74
2023-01-04T15:06:00.781Z,58.81
2023-01-04T15:08:31.613Z,58.98
2023-01-04T15:11:02.667Z,59.08
2023-01-04T15:13:38.997Z,59.26
2023-01-04T15:16:12.716Z,59.26
2023-01-04T15:18:43.551Z,59.36
2023-01-04T15:21:14.806Z,59.40
2023-01-04T15:23:45.435Z,59.53
2023-01-04T15:26:16.488Z,59.61
2023-01-04T15:28:47.212Z,59.78
2023-01-04T15:31:20.994Z,59.90
2023-01-04T15:33:56.711Z,60.00
2023-01-04T15:36:27.646Z,60.14
2023-01-04T15:38:58.650Z,60.09
2023-01-04T15:41:47.100Z,60.12
2023-01-04T15:44:17.823Z,60.29
2023-01-04T15:46:48.771Z,60.45
2023-01-04T15:49:19.356Z,60.57
2023-01-04T15:51:50.361Z,60.58
2023-01-04T15:54:21.985Z,60.78
2023-01-04T15:56:52.931Z,60.96
2023-01-04T15:59:24.519Z,61.20
2023-01-04T16:01:55.603Z,61.38
2023-01-04T16:04:27.184Z,61.43
2023-01-04T16:06:58.406Z,61.50
2023-01-04T16:09:29.248Z,61.60
2023-01-04T16:12:18.023Z,61.70
2023-01-04T16:14:48.736Z,61.73
2023-01-04T16:17:19.673Z,61.87
2023-01-04T16:19:50.309Z,62.01
2023-01-04T16:22:20.818Z,62.31
2023-01-04T16:27:41.861Z,55.83
2023-01-04T16:30:14.752Z,57.17
2023-01-04T16:32:46.287Z,58.73
2023-01-04T16:35:17.026Z,59.95
2023-01-04T16:37:48.326Z,60.67
2023-01-04T16:40:19.122Z,61.47
2023-01-04T16:42:51.581Z,62.35
2023-01-04T16:45:22.340Z,59.41
2023-01-04T16:47:53.926Z,58.13
2023-01-04T16:50:24.501Z,59.98
2023-01-04T16:52:55.428Z,62.17
2023-01-04T16:55:25.964Z,59.29
2023-01-04T16:57:56.908Z,58.40
2023-01-04T17:00:27.838Z,60.96
2023-01-04T17:02:58.651Z,61.92
2023-01-04T17:05:29.404Z,57.58
2023-01-04T17:08:00.244Z,60.18
2023-01-04T17:10:30.972Z,62.31
2023-01-04T17:13:01.941Z,59.17
2023-01-04T17:15:42.856Z,57.94
2023-01-04T17:18:15.772Z,60.62
2023-01-04T17:20:52.979Z,62.56
2023-01-04T17:23:23.976Z,60.13
2023-01-04T17:25:54.719Z,57.82
2023-01-04T17:28:25.460Z,59.59
2023-01-04T17:30:56.284Z,61.77
2023-01-04T17:33:27.334Z,62.50
2023-01-04T17:35:58.320Z,58.14
2023-01-04T17:38:29.316Z,57.17
2023-01-04T17:41:07.118Z,60.51
2023-01-04T17:43:38.327Z,62.69
2023-01-04T17:46:10.290Z,59.24
2023-01-04T17:48:41.674Z,58.12
2023-01-04T17:51:13.641Z,60.59
2023-01-04T17:53:45.626Z,62.55
2023-01-04T17:56:17.276Z,59.81
2023-01-04T17:58:48.083Z,57.00
2023-01-04T18:01:20.533Z,60.56
2023-01-04T18:03:52.355Z,63.02
2023-01-04T18:06:25.709Z,59.16
2023-01-04T18:08:57.415Z,57.97
2023-01-04T18:11:28.084Z,61.72
2023-01-04T18:13:58.823Z,61.60
2023-01-04T18:16:30.602Z,58.77
2023-01-04T18:19:01.892Z,61.34
2023-01-04T18:21:32.670Z,62.80
2023-01-04T18:29:45.831Z,62.84
2023-01-04T18:32:17.103Z,58.56
2023-01-04T18:34:50.499Z,58.82
2023-01-04T18:37:19.622Z,62.33
2023-01-04T18:39:51.006Z,61.65
2023-01-04T18:42:21.638Z,57.48
2023-01-04T18:44:52.578Z,59.20
2023-01-04T18:47:23.453Z,62.19
2023-01-04T18:49:55.676Z,61.63
2023-01-04T18:52:26.417Z,58.86
2023-01-04T18:54:57.461Z,60.74
2023-01-04T18:57:28.291Z,62.93
2023-01-04T19:00:00.355Z,59.72
2023-01-04T19:02:31.999Z,58.57
2023-01-04T19:05:03.465Z,61.62
2023-01-04T19:07:39.027Z,62.09
2023-01-04T19:10:10.492Z,58.03
2023-01-04T19:12:42.029Z,58.19
2023-01-04T19:15:13.399Z,62.44
2023-01-04T19:17:43.984Z,61.37
2023-01-04T19:20:14.967Z,58.67
2023-01-04T19:22:45.649Z,62.35
2023-01-04T19:25:16.502Z,60.78
2023-01-04T19:27:47.201Z,59.43
2023-01-04T19:30:18.468Z,61.86
2023-01-04T19:32:49.251Z,61.02
2023-01-04T19:35:20.111Z,59.10
2023-01-04T19:37:50.585Z,62.57
2023-01-04T19:40:21.211Z,61.32
2023-01-04T19:42:51.820Z,58.69
2023-01-04T19:45:23.255Z,60.98
2023-01-04T19:47:53.701Z,62.67
2023-01-04T19:50:24.301Z,59.18
2023-01-04T19:52:54.862Z,59.26
2023-01-04T19:55:29.786Z,62.60
2023-01-04T19:58:00.822Z,60.17
2023-01-04T20:00:31.541Z,60.97
2023-01-04T20:03:02.574Z,62.87
2023-01-04T20:05:34.775Z,59.22
2023-01-04T20:08:05.865Z,58.67
2023-01-04T20:10:36.652Z,62.56
2023-01-04T20:13:07.377Z,60.30
2023-01-04T20:15:40.019Z,58.90
2023-01-04T20:18:14.225Z,61.87
2023-01-04T20:20:45.384Z,62.00
2023-01-04T20:23:16.469Z,59.63
2023-01-04T20:25:48.415Z,62.40
2023-01-04T20:28:20.286Z,59.91
2023-01-04T20:31:01.382Z,60.58
2023-01-04T20:33:32.410Z,62.25
2023-01-04T20:36:07.842Z,58.34
2023-01-04T20:38:42.518Z,60.81
2023-01-04T20:41:14.427Z,61.74
2023-01-04T20:43:46.702Z,59.52
2023-01-04T20:46:19.242Z,62.49
2023-01-04T20:48:50.666Z,60.00
2023-01-04T20:51:22.894Z,58.37
2023-01-04T20:53:54.040Z,61.83
2023-01-04T20:56:25.542Z,62.10
2023-01-04T20:58:56.508Z,58.00
2023-01-04T21:01:27.574Z,60.29
2023-01-04T21:03:58.782Z,62.26
2023-01-04T21:06:30.972Z,57.99
2023-01-04T21:09:01.700Z,59.88
2023-01-04T21:11:32.648Z,62.75
2023-01-04T21:14:03.275Z,59.15
2023-01-04T21:16:34.209Z,60.33
2023-01-04T21:19:05.022Z,62.56
2023-01-04T21:21:35.911Z,58.76
2023-01-04T21:24:07.131Z,61.45
2023-01-04T21:26:38.166Z,61.82
2023-01-04T21:29:08.983Z,59.05
2023-01-04T21:31:39.785Z,60.27
2023-01-04T21:34:14.408Z,62.60
2023-01-04T21:36:48.376Z,59.74
2023-01-04T21:39:19.099Z,59.05
2023-01-04T21:41:51.525Z,62.72
2023-01-04T21:44:22.237Z,59.80
2023-01-04T21:46:53.205Z,60.46
2023-01-04T21:49:23.832Z,62.12
2023-01-04T21:51:55.820Z,59.22
2023-01-04T21:54:26.579Z,61.74
2023-01-04T21:56:57.346Z,60.85
2023-01-04T21:59:27.945Z,60.43
2023-01-04T22:01:59.029Z,62.59
2023-01-04T22:04:30.190Z,59.21
2023-01-04T22:07:00.948Z,62.14
2023-01-04T22:09:31.754Z,61.30
2023-01-04T22:12:02.830Z,58.90
2023-01-04T22:28:21.199Z,62.68
2023-01-04T22:30:52.098Z,59.05
2023-01-04T22:33:22.933Z,60.84
2023-01-04T22:35:53.976Z,63.01
2023-01-04T22:38:24.727Z,58.24
2023-01-04T22:40:55.547Z,61.87
2023-01-04T22:43:26.576Z,62.48
2023-01-04T22:46:01.868Z,57.49
2023-01-04T22:48:33.087Z,60.26
2023-01-04T22:51:07.667Z,62.78
2023-01-04T22:53:39.756Z,58.37
2023-01-04T22:56:20.845Z,59.44
2023-01-04T22:58:55.122Z,63.18
2023-01-04T23:01:27.186Z,60.61
2023-01-04T23:03:58.526Z,59.37
2023-01-04T23:06:30.015Z,62.18
2023-01-04T23:09:02.073Z,62.54
2023-01-04T23:11:34.283Z,58.86
2023-01-04T23:14:06.530Z,62.47
2023-01-04T23:16:37.178Z,61.31
2023-01-04T23:19:09.539Z,59.12
2023-01-04T23:21:40.552Z,62.25
2023-01-04T23:24:13.811Z,62.44
2023-01-04T23:26:44.598Z,59.01
2023-01-04T23:29:15.635Z,61.36
2023-01-04T23:31:46.393Z,61.47
2023-01-04T23:34:17.390Z,60.45
2023-01-04T23:36:48.119Z,62.48
2023-01-04T23:39:18.862Z,59.81
2023-01-04T23:41:50.521Z,58.73
2023-01-04T23:46:53.817Z,60.65
2023-01-04T23:49:25.280Z,60.82
2023-01-04T23:51:56.242Z,62.78
2023-01-04T23:54:27.254Z,59.67
2023-01-04T23:56:58.346Z,59.37
2023-01-04T23:59:29.030Z,62.77
